Time;durP1;ratioP1;P1;durP2;ratioP2;P2;SDS_P1;SDS_P2;PMS_P1;PMS_P2;Temp;Humidity;BMP_temperature;BMP_pressure;BME280_temperature;BME280_humidity;BME280_pressure;Samples;Min_cycle;Max_cycle;Signal;HPM_P1;HPM_P2
2023/04/24 00:01:50;;;;;;;2.27;1.60;;;12.00;1.00;;;;;;5029979;28;20195;-61
2023/04/24 00:04:17;;;;;;;5.00;3.90;;;12.00;1.00;;;;;;5009713;28;20719;-62
2023/04/24 00:06:44;;;;;;;2.23;1.40;;;12.00;1.00;;;;;;5029904;28;20206;-61
2023/04/24 00:09:11;;;;;;;4.33;1.73;;;12.00;1.00;;;;;;5030351;28;20230;-62
2023/04/24 00:11:38;;;;;;;3.97;2.67;;;11.90;1.00;;;;;;5004965;28;20289;-62
2023/04/24 00:14:05;;;;;;;5.00;2.50;;;11.80;1.00;;;;;;5016005;28;20192;-62
2023/04/24 00:16:32;;;;;;;2.37;2.10;;;11.80;1.00;;;;;;5011963;28;20308;-62
2023/04/24 00:19:00;;;;;;;3.30;1.73;;;11.70;1.00;;;;;;5012441;28;20695;-63
2023/04/24 00:21:27;;;;;;;1.90;1.70;;;11.70;1.00;;;;;;5010148;28;20196;-61
2023/04/24 00:23:54;;;;;;;1.90;1.30;;;11.80;1.00;;;;;;5013478;28;20220;-61
2023/04/24 00:26:22;;;;;;;1.33;1.00;;;11.80;1.00;;;;;;4998996;28;20874;-61
2023/04/24 00:28:49;;;;;;;1.87;1.30;;;11.80;1.00;;;;;;5019901;28;20838;-61
2023/04/24 00:31:16;;;;;;;3.50;1.37;;;11.80;1.00;;;;;;5025392;28;20823;-61
2023/04/24 00:33:43;;;;;;;1.63;1.13;;;11.80;1.00;;;;;;4996780;28;20200;-61
2023/04/24 00:36:10;;;;;;;2.50;1.10;;;11.80;1.00;;;;;;5012572;28;20200;-61
2023/04/24 00:38:37;;;;;;;2.37;1.13;;;11.80;1.00;;;;;;5016268;28;20197;-61
2023/04/24 00:41:04;;;;;;;2.00;1.00;;;11.80;1.00;;;;;;5011118;28;20215;-61
2023/04/24 00:43:31;;;;;;;3.50;1.10;;;11.80;1.00;;;;;;5002449;28;20228;-62
2023/04/24 00:46:01;;;;;;;1.47;1.10;;;11.80;1.00;;;;;;5013357;28;20195;-61
2023/04/24 00:48:28;;;;;;;1.83;1.10;;;11.70;1.00;;;;;;5027198;28;20204;-61
2023/04/24 00:50:55;;;;;;;0.80;0.80;;;11.70;1.00;;;;;;5012022;28;20556;-61
2023/04/24 00:53:22;;;;;;;2.03;1.10;;;11.60;1.00;;;;;;5001059;28;20654;-61
2023/04/24 00:55:49;;;;;;;1.33;1.10;;;11.60;1.00;;;;;;5012373;28;20184;-62
2023/04/24 00:58:16;;;;;;;3.23;2.40;;;11.60;1.00;;;;;;5029366;28;20189;-61
2023/04/24 01:00:44;;;;;;;1.97;1.43;;;11.40;1.00;;;;;;5012946;28;20211;-62
2023/04/24 01:03:13;;;;;;;0.93;0.83;;;11.40;1.00;;;;;;5044670;22;20273;-62
2023/04/24 01:05:40;;;;;;;1.40;1.30;;;11.40;1.00;;;;;;5032035;28;20200;-61
2023/04/24 01:08:07;;;;;;;4.63;2.20;;;11.40;1.00;;;;;;5042502;28;20271;-62
2023/04/24 01:10:38;;;;;;;3.20;1.70;;;11.40;1.00;;;;;;5047213;28;20206;-62
2023/04/24 01:13:05;;;;;;;2.63;2.20;;;11.40;1.00;;;;;;5035492;28;20248;-61
2023/04/24 01:15:32;;;;;;;4.17;2.90;;;11.40;1.00;;;;;;5063415;28;20666;-62
2023/04/24 01:17:59;;;;;;;3.43;2.40;;;11.20;1.00;;;;;;5036457;28;20203;-61
2023/04/24 01:20:26;;;;;;;3.50;2.60;;;11.10;1.00;;;;;;5041749;28;20199;-61
2023/04/24 01:22:56;;;;;;;2.00;1.40;;;11.00;1.00;;;;;;5046259;28;20199;-61
2023/04/24 01:25:25;;;;;;;1.93;1.20;;;11.00;1.00;;;;;;5049041;28;20223;-62
2023/04/24 01:27:52;;;;;;;1.90;1.80;;;10.90;1.00;;;;;;5054288;28;20893;-63
2023/04/24 01:30:19;;;;;;;2.20;1.77;;;11.00;1.00;;;;;;5047663;28;20298;-62
2023/04/24 01:32:47;;;;;;;2.27;1.60;;;11.00;1.00;;;;;;5033746;28;20191;-63
2023/04/24 01:35:14;;;;;;;2.27;1.50;;;11.00;1.00;;;;;;5049357;28;20223;-63
2023/04/24 01:37:41;;;;;;;1.50;1.30;;;10.90;1.00;;;;;;5062015;28;20574;-63
2023/04/24 01:40:09;;;;;;;1.73;1.63;;;10.90;1.00;;;;;;5048065;28;20198;-63
2023/04/24 01:42:36;;;;;;;1.93;1.70;;;10.80;1.00;;;;;;5039130;28;20188;-62
2023/04/24 01:45:05;;;;;;;3.33;1.70;;;10.80;1.00;;;;;;5059523;28;20662;-62
2023/04/24 01:47:32;;;;;;;2.87;1.90;;;10.80;1.00;;;;;;5047235;28;20201;-63
2023/04/24 01:49:59;;;;;;;1.90;1.67;;;10.90;1.00;;;;;;5026865;28;20191;-62
2023/04/24 01:52:27;;;;;;;2.10;1.60;;;10.90;1.00;;;;;;5031314;28;20230;-62
2023/04/24 01:54:55;;;;;;;3.03;1.70;;;10.80;1.00;;;;;;5044415;28;20694;-63
2023/04/24 01:57:22;;;;;;;5.40;1.80;;;11.00;1.00;;;;;;5040555;28;20516;-61
2023/04/24 01:59:50;;;;;;;2.47;1.80;;;11.00;1.00;;;;;;5048417;28;20280;-61
2023/04/24 02:02:17;;;;;;;2.20;1.70;;;11.00;1.00;;;;;;5026165;28;20285;-62
2023/04/24 02:04:45;;;;;;;2.57;1.77;;;11.00;1.00;;;;;;5038466;28;20265;-64
2023/04/24 02:07:12;;;;;;;2.47;1.97;;;11.00;1.00;;;;;;5041621;28;20203;-62
2023/04/24 02:09:39;;;;;;;3.60;1.80;;;11.00;1.00;;;;;;5044961;28;20195;-62
2023/04/24 02:12:06;;;;;;;3.27;1.80;;;11.00;1.00;;;;;;5045320;28;20204;-61
2023/04/24 02:14:33;;;;;;;2.50;1.60;;;11.00;1.00;;;;;;5041352;28;20200;-62
2023/04/24 02:17:00;;;;;;;1.73;1.63;;;11.00;1.00;;;;;;5036673;28;20207;-61
2023/04/24 02:19:28;;;;;;;2.97;1.67;;;11.10;1.00;;;;;;5042041;28;20202;-61
2023/04/24 02:21:55;;;;;;;2.27;1.63;;;11.10;1.00;;;;;;5043065;28;20323;-61
2023/04/24 02:24:22;;;;;;;4.13;1.90;;;11.20;1.00;;;;;;5041625;28;20204;-62
2023/04/24 02:26:49;;;;;;;4.67;1.77;;;11.30;1.00;;;;;;5043484;28;20195;-62
2023/04/24 02:29:16;;;;;;;1.83;1.73;;;11.20;1.00;;;;;;5042220;28;20203;-62
2023/04/24 02:31:43;;;;;;;2.20;1.80;;;11.20;1.00;;;;;;5043695;28;20937;-68
2023/04/24 02:34:10;;;;;;;2.60;2.10;;;11.20;1.00;;;;;;5046647;28;20586;-62
2023/04/24 02:36:37;;;;;;;1.93;1.70;;;11.20;1.00;;;;;;5046326;28;20732;-62
2023/04/24 02:39:04;;;;;;;2.40;1.83;;;11.20;1.00;;;;;;5044289;28;20195;-62
2023/04/24 02:41:32;;;;;;;2.27;1.50;;;11.20;1.00;;;;;;5053980;28;20202;-62
2023/04/24 02:43:59;;;;;;;3.07;1.67;;;11.20;1.00;;;;;;5039927;28;20192;-62
2023/04/24 02:46:26;;;;;;;1.80;1.57;;;11.20;1.00;;;;;;5025356;28;20223;-62
2023/04/24 02:48:53;;;;;;;1.90;1.60;;;11.30;1.00;;;;;;5037023;28;20192;-62
2023/04/24 02:51:20;;;;;;;2.03;1.80;;;11.30;1.00;;;;;;5055847;28;20204;-62
2023/04/24 02:53:47;;;;;;;2.93;2.03;;;11.30;1.00;;;;;;5057679;28;20196;-62
2023/04/24 02:56:14;;;;;;;3.40;1.70;;;11.40;1.00;;;;;;5038897;28;20246;-62
2023/04/24 02:58:42;;;;;;;3.33;1.83;;;11.40;1.00;;;;;;5045324;28;20717;-62
2023/04/24 03:01:09;;;;;;;2.77;2.07;;;11.30;1.00;;;;;;5044366;28;20203;-62
2023/04/24 03:03:38;;;;;;;3.03;2.40;;;11.40;1.00;;;;;;5036941;28;20251;-62
2023/04/24 03:06:07;;;;;;;6.83;2.03;;;11.40;1.00;;;;;;5036344;28;20562;-64
2023/04/24 03:08:35;;;;;;;2.43;2.10;;;11.40;1.00;;;;;;5017808;28;20207;-63
2023/04/24 03:11:03;;;;;;;3.57;2.53;;;11.30;1.00;;;;;;5027600;28;20212;-62
2023/04/24 03:13:30;;;;;;;2.90;1.97;;;11.30;1.00;;;;;;5032957;28;20258;-61
2023/04/24 03:15:57;;;;;;;2.00;1.80;;;11.20;1.00;;;;;;5036362;28;20195;-63
2023/04/24 03:18:25;;;;;;;2.37;1.67;;;11.20;1.00;;;;;;5045291;28;20223;-62
2023/04/24 03:20:52;;;;;;;2.50;2.10;;;11.20;1.00;;;;;;5016334;28;20196;-63
2023/04/24 03:23:19;;;;;;;3.23;2.00;;;11.10;1.00;;;;;;5035297;28;20204;-64
2023/04/24 03:25:48;;;;;;;2.87;1.90;;;11.00;1.00;;;;;;5027936;28;20281;-61
2023/04/24 03:28:16;;;;;;;3.67;2.20;;;10.90;1.00;;;;;;5019269;28;20231;-62
2023/04/24 03:30:48;;;;;;;2.70;2.50;;;11.10;1.00;;;;;;5010817;28;20683;-63
2023/04/24 03:33:16;;;;;;;3.60;3.00;;;11.00;1.00;;;;;;5021915;28;20196;-63
2023/04/24 03:35:53;;;;;;;3.70;2.50;;;10.80;1.00;;;;;;5011145;28;20287;-62
2023/04/24 03:38:21;;;;;;;3.57;2.77;;;10.70;1.00;;;;;;5024492;28;20200;-62
2023/04/24 03:40:58;;;;;;;4.90;3.00;;;10.60;1.00;;;;;;5026139;28;20200;-62
2023/04/24 03:43:35;;;;;;;3.30;2.63;;;10.60;1.00;;;;;;5045444;28;20666;-62
2023/04/24 03:46:04;;;;;;;5.93;4.60;;;10.70;1.00;;;;;;5025280;28;20211;-62
2023/04/24 03:48:34;;;;;;;9.87;7.10;;;10.80;1.00;;;;;;5044829;28;20199;-63
2023/04/24 03:51:01;;;;;;;6.30;4.60;;;11.00;1.00;;;;;;5026945;28;20204;-62
2023/04/24 03:53:29;;;;;;;4.87;4.37;;;10.80;1.00;;;;;;5034722;28;23031;-63
2023/04/24 03:55:57;;;;;;;5.97;4.80;;;10.70;1.00;;;;;;5024686;28;20290;-62
2023/04/24 03:58:26;;;;;;;14.43;11.17;;;10.80;1.00;;;;;;5025473;28;20250;-62
2023/04/24 04:00:57;;;;;;;12.93;9.67;;;10.90;1.00;;;;;;5033962;28;20196;-62
2023/04/24 04:03:56;;;;;;;10.93;8.30;;;10.90;1.00;;;;;;5023901;28;20242;-62
2023/04/24 04:06:26;;;;;;;13.83;8.57;;;10.70;1.00;;;;;;5040071;28;20206;-62
2023/04/24 04:08:54;;;;;;;15.23;10.87;;;10.60;1.00;;;;;;5059535;28;20203;-62
2023/04/24 04:11:21;;;;;;;10.23;8.23;;;10.60;1.00;;;;;;5039159;28;20245;-62
2023/04/24 04:13:50;;;;;;;10.17;7.40;;;10.50;1.00;;;;;;5041815;28;20191;-62
2023/04/24 04:16:20;;;;;;;9.67;8.07;;;10.40;1.00;;;;;;5063906;28;20200;-63
2023/04/24 04:18:49;;;;;;;10.33;8.00;;;10.20;1.00;;;;;;5032265;28;20201;-63
2023/04/24 04:21:16;;;;;;;9.43;7.80;;;10.10;1.00;;;;;;5042649;28;20285;-62
2023/04/24 04:23:44;;;;;;;9.00;7.87;;;10.20;1.00;;;;;;5036547;28;20219;-63
2023/04/24 04:26:16;;;;;;;11.97;8.50;;;10.10;1.00;;;;;;5048663;28;20196;-62
2023/04/24 04:29:03;;;;;;;10.23;8.40;;;10.10;1.00;;;;;;5047869;28;20211;-62
2023/04/24 04:31:32;;;;;;;15.13;9.37;;;10.00;1.00;;;;;;5058455;28;20749;-62
2023/04/24 04:34:03;;;;;;;10.20;8.87;;;10.10;1.00;;;;;;5052538;28;20204;-62
2023/04/24 04:36:36;;;;;;;9.50;8.53;;;10.20;1.00;;;;;;5035457;28;20200;-62
2023/04/24 04:39:18;;;;;;;13.43;8.00;;;10.20;1.00;;;;;;5032587;28;20202;-62
2023/04/24 04:41:54;;;;;;;12.97;8.50;;;10.30;1.00;;;;;;5036233;28;20199;-62
2023/04/24 04:44:27;;;;;;;10.33;8.40;;;10.50;1.00;;;;;;5039117;28;20729;-62
2023/04/24 04:46:59;;;;;;;12.67;9.70;;;10.50;1.00;;;;;;5051290;28;20216;-62
2023/04/24 04:49:28;;;;;;;12.30;9.33;;;10.50;1.00;;;;;;5039874;28;20231;-62
2023/04/24 04:51:56;;;;;;;12.57;9.27;;;10.50;1.00;;;;;;5042465;28;20216;-62
2023/04/24 04:54:25;;;;;;;15.10;10.50;;;10.50;1.00;;;;;;5051661;28;20662;-62
2023/04/24 04:56:53;;;;;;;16.07;11.63;;;10.60;1.00;;;;;;5051859;28;20238;-62
2023/04/24 04:59:20;;;;;;;16.07;10.80;;;10.60;1.00;;;;;;5060991;28;20201;-62
2023/04/24 05:01:51;;;;;;;16.70;11.57;;;10.60;1.00;;;;;;5040797;28;20204;-62
2023/04/24 05:04:18;;;;;;;13.77;11.67;;;10.60;1.00;;;;;;5022957;28;20204;-62
2023/04/24 05:06:47;;;;;;;15.93;11.80;;;10.70;1.00;;;;;;5033732;28;20228;-62
2023/04/24 05:09:15;;;;;;;15.57;11.00;;;10.70;1.00;;;;;;5010009;28;20604;-62
2023/04/24 05:11:50;;;;;;;14.27;10.93;;;10.60;1.00;;;;;;5024986;28;20211;-62
2023/04/24 05:14:18;;;;;;;16.73;10.43;;;10.60;1.00;;;;;;5009666;28;20258;-62
2023/04/24 05:16:45;;;;;;;13.37;9.80;;;10.60;1.00;;;;;;5016707;28;20226;-62
2023/04/24 05:19:14;;;;;;;15.93;10.43;;;10.60;1.00;;;;;;5024721;28;20671;-62
2023/04/24 05:21:41;;;;;;;12.30;10.37;;;10.60;1.00;;;;;;5036296;28;20188;-62
2023/04/24 05:24:09;;;;;;;13.37;10.60;;;10.60;1.00;;;;;;5024881;28;20234;-62
2023/04/24 05:27:04;;;;;;;13.43;10.33;;;10.80;1.00;;;;;;5023527;28;20224;-63
2023/04/24 05:29:38;;;;;;;13.90;10.97;;;10.80;1.00;;;;;;5023920;28;20219;-62
2023/04/24 05:32:07;;;;;;;13.87;10.50;;;10.70;1.00;;;;;;5008514;28;20247;-62
2023/04/24 05:34:34;;;;;;;13.13;10.83;;;10.70;1.00;;;;;;5033358;28;20254;-62
2023/04/24 05:37:02;;;;;;;15.77;9.53;;;10.70;1.00;;;;;;5019677;28;20282;-62
2023/04/24 05:39:29;;;;;;;14.87;10.63;;;10.70;1.00;;;;;;5034645;28;20753;-62
2023/04/24 05:41:57;;;;;;;13.27;11.20;;;10.70;1.00;;;;;;5036987;28;20682;-62
2023/04/24 05:44:25;;;;;;;17.03;10.80;;;10.70;1.00;;;;;;5022144;28;20214;-62
2023/04/24 05:46:52;;;;;;;16.30;10.90;;;10.70;1.00;;;;;;5021341;28;20932;-63
2023/04/24 05:49:19;;;;;;;15.03;11.97;;;10.70;1.00;;;;;;5033869;28;20188;-62
2023/04/24 05:51:47;;;;;;;14.07;11.20;;;10.60;1.00;;;;;;5004914;28;20215;-62
2023/04/24 05:54:15;;;;;;;13.03;11.20;;;10.60;1.00;;;;;;5034916;28;20195;-63
2023/04/24 05:56:42;;;;;;;16.97;11.37;;;10.70;1.00;;;;;;5022670;28;20557;-63
2023/04/24 05:59:13;;;;;;;17.50;11.63;;;10.70;1.00;;;;;;5020032;28;20289;-60
2023/04/24 06:01:40;;;;;;;16.53;11.03;;;10.80;1.00;;;;;;5032177;28;20277;-63
2023/04/24 06:04:15;;;;;;;15.03;10.77;;;10.90;1.00;;;;;;5045337;28;20227;-64
2023/04/24 06:06:42;;;;;;;17.23;11.80;;;11.00;1.00;;;;;;5034101;28;20196;-64
2023/04/24 06:09:10;;;;;;;12.30;10.83;;;10.90;1.00;;;;;;5024273;28;20200;-66
2023/04/24 06:11:37;;;;;;;14.03;11.23;;;10.90;1.00;;;;;;5020545;28;20226;-62
2023/04/24 06:14:05;;;;;;;15.50;9.57;;;11.30;1.00;;;;;;5035744;28;20648;-61
2023/04/24 06:16:38;;;;;;;9.83;8.70;;;11.10;1.00;;;;;;5037783;28;20290;-61
2023/04/24 06:19:16;;;;;;;13.87;9.33;;;10.90;1.00;;;;;;5017029;28;20199;-62
2023/04/24 06:21:43;;;;;;;9.80;8.80;;;10.80;1.00;;;;;;5028238;28;20199;-61
2023/04/24 06:24:10;;;;;;;10.10;7.70;;;10.80;1.00;;;;;;5004808;28;20204;-62
2023/04/24 06:26:37;;;;;;;10.63;7.70;;;10.80;1.00;;;;;;5032147;28;20673;-62
2023/04/24 06:29:07;;;;;;;10.50;7.67;;;10.90;1.00;;;;;;5020649;28;20290;-69
2023/04/24 06:31:36;;;;;;;9.63;7.57;;;11.10;1.00;;;;;;5023661;28;20215;-63
2023/04/24 06:34:04;;;;;;;8.90;6.73;;;11.10;1.00;;;;;;5032092;28;20671;-62
2023/04/24 06:36:32;;;;;;;8.00;6.33;;;10.90;1.00;;;;;;5009229;28;20294;-62
2023/04/24 06:38:59;;;;;;;8.93;6.30;;;11.00;1.00;;;;;;5034222;28;20521;-62
2023/04/24 06:41:26;;;;;;;7.53;5.70;;;10.70;1.00;;;;;;5005750;28;20235;-64
2023/04/24 06:43:53;;;;;;;9.07;6.07;;;10.50;1.00;;;;;;5034631;28;20192;-62
2023/04/24 06:46:23;;;;;;;12.63;6.80;;;10.70;1.00;;;;;;5019632;28;20204;-63
2023/04/24 06:48:50;;;;;;;7.57;6.00;;;10.60;1.00;;;;;;5035693;28;20270;-62
2023/04/24 06:51:17;;;;;;;12.80;7.07;;;10.70;1.00;;;;;;5031847;28;20188;-63
2023/04/24 06:53:45;;;;;;;9.17;6.97;;;10.50;1.00;;;;;;5034048;28;20196;-63
2023/04/24 06:56:15;;;;;;;9.90;7.03;;;10.50;1.00;;;;;;5030427;28;20258;-62
2023/04/24 06:58:42;;;;;;;7.90;6.40;;;10.50;1.00;;;;;;5035189;28;20538;-62
2023/04/24 07:01:10;;;;;;;9.63;6.87;;;10.60;1.00;;;;;;5036960;28;20192;-62
2023/04/24 07:03:37;;;;;;;8.07;6.07;;;10.70;1.00;;;;;;5037587;28;20361;-62
2023/04/24 07:06:05;;;;;;;9.97;6.33;;;10.50;1.00;;;;;;5027468;28;20196;-62
2023/04/24 07:08:32;;;;;;;8.10;6.17;;;10.50;1.00;;;;;;5026383;28;20188;-68
2023/04/24 07:11:00;;;;;;;6.57;5.80;;;10.90;1.00;;;;;;5040518;28;20585;-65
2023/04/24 07:13:27;;;;;;;7.83;5.33;;;11.20;1.00;;;;;;5030748;28;20219;-65
2023/04/24 07:15:55;;;;;;;9.07;5.70;;;11.10;1.00;;;;;;5037649;28;20718;-64
2023/04/24 07:18:23;;;;;;;5.97;5.03;;;11.00;1.00;;;;;;5041609;28;20192;-64
2023/04/24 07:20:50;;;;;;;8.10;5.17;;;11.00;1.00;;;;;;5039381;28;20217;-64
2023/04/24 07:23:19;;;;;;;4.53;4.13;;;10.90;1.00;;;;;;5037348;28;20278;-65
2023/04/24 07:25:46;;;;;;;6.33;4.40;;;10.70;1.00;;;;;;5027621;28;20563;-64
2023/04/24 07:28:13;;;;;;;6.53;4.03;;;10.90;1.00;;;;;;5037404;28;20197;-63
2023/04/24 07:30:40;;;;;;;4.93;4.10;;;10.90;1.00;;;;;;5024478;28;20212;-63
2023/04/24 07:33:07;;;;;;;6.03;4.10;;;10.80;1.00;;;;;;5041194;28;20299;-64
2023/04/24 07:35:35;;;;;;;4.90;4.40;;;11.00;1.00;;;;;;5028547;28;20687;-64
2023/04/24 07:38:02;;;;;;;3.50;3.20;;;10.80;1.00;;;;;;5012152;28;20553;-64
2023/04/24 07:40:29;;;;;;;5.10;3.13;;;10.80;1.00;;;;;;5026736;28;20196;-63
2023/04/24 07:42:56;;;;;;;3.33;3.03;;;11.20;1.00;;;;;;5038209;28;20203;-62
2023/04/24 07:45:25;;;;;;;3.93;3.50;;;11.40;1.00;;;;;;5027438;28;20755;-61
2023/04/24 07:47:52;;;;;;;3.23;2.93;;;11.30;1.00;;;;;;5028363;28;20191;-61
2023/04/24 07:50:20;;;;;;;3.83;3.20;;;11.40;1.00;;;;;;5039385;28;20685;-61
2023/04/24 07:52:47;;;;;;;3.43;3.13;;;11.20;1.00;;;;;;5038645;28;20242;-61
2023/04/24 07:55:14;;;;;;;3.43;3.13;;;10.90;1.00;;;;;;5036047;28;20277;-64
2023/04/24 07:57:41;;;;;;;5.27;3.13;;;10.80;1.00;;;;;;5035734;28;20317;-62
2023/04/24 08:00:09;;;;;;;3.60;3.07;;;10.80;1.00;;;;;;5035798;28;20247;-61
2023/04/24 08:02:39;;;;;;;2.83;2.63;;;11.20;1.00;;;;;;5034236;28;20236;-61
2023/04/24 08:05:07;;;;;;;3.73;3.00;;;11.00;1.00;;;;;;5035776;28;20916;-61
2023/04/24 08:07:35;;;;;;;3.30;3.00;;;10.80;1.00;;;;;;5036809;28;20204;-61
2023/04/24 08:10:02;;;;;;;3.93;3.13;;;10.70;1.00;;;;;;5038233;28;20650;-62
2023/04/24 08:12:30;;;;;;;3.53;3.20;;;10.80;1.00;;;;;;5044016;28;20210;-61
2023/04/24 08:14:57;;;;;;;5.53;3.10;;;10.80;1.00;;;;;;5040249;28;20695;-61
2023/04/24 08:17:24;;;;;;;6.00;3.60;;;10.80;1.00;;;;;;5033235;28;20200;-61
2023/04/24 08:19:53;;;;;;;4.03;2.73;;;10.60;1.00;;;;;;5040657;28;20199;-61
2023/04/24 08:22:20;;;;;;;3.87;3.00;;;10.40;1.00;;;;;;5051229;28;20191;-61
2023/04/24 08:24:47;;;;;;;3.87;2.83;;;10.30;1.00;;;;;;5035927;28;20554;-61
2023/04/24 08:27:14;;;;;;;3.23;2.93;;;10.20;1.00;;;;;;5043731;28;20219;-60
2023/04/24 08:29:41;;;;;;;4.27;3.17;;;10.30;1.00;;;;;;5040250;28;20207;-61
2023/04/24 08:32:08;;;;;;;3.33;3.00;;;10.30;1.00;;;;;;5036170;28;20223;-61
2023/04/24 08:34:35;;;;;;;3.00;2.67;;;10.50;1.00;;;;;;5034301;28;20311;-61
2023/04/24 08:37:03;;;;;;;2.70;2.50;;;10.70;1.00;;;;;;5038036;28;20219;-60
2023/04/24 08:39:30;;;;;;;2.30;2.10;;;10.70;1.00;;;;;;5040554;28;20275;-63
2023/04/24 08:42:04;;;;;;;3.33;2.80;;;10.60;1.00;;;;;;5043656;28;20628;-61
2023/04/24 08:44:32;;;;;;;2.37;2.07;;;11.00;1.00;;;;;;5054307;28;20273;-61
2023/04/24 08:47:01;;;;;;;1.90;1.70;;;11.50;1.00;;;;;;5034803;28;20200;-61
2023/04/24 08:49:29;;;;;;;4.33;3.70;;;11.90;1.00;;;;;;5038632;28;20274;-61
2023/04/24 08:51:56;;;;;;;1.97;1.60;;;11.80;1.00;;;;;;5034399;28;20691;-61
2023/04/24 08:54:25;;;;;;;2.10;1.90;;;11.30;1.00;;;;;;5049273;28;20243;-62
2023/04/24 08:56:56;;;;;;;2.83;2.10;;;10.70;1.00;;;;;;5040942;28;21531;-62
2023/04/24 08:59:23;;;;;;;2.87;2.43;;;10.50;1.00;;;;;;5039287;28;21821;-61
2023/04/24 09:01:52;;;;;;;2.43;2.20;;;10.50;1.00;;;;;;5050556;28;20192;-61
2023/04/24 09:04:21;;;;;;;3.97;2.67;;;10.30;1.00;;;;;;5021010;28;20605;-64
2023/04/24 09:06:52;;;;;;;2.70;2.30;;;9.90;1.00;;;;;;5021260;28;20282;-62
2023/04/24 09:09:20;;;;;;;4.43;2.90;;;9.60;1.00;;;;;;5028800;28;20265;-62
2023/04/24 09:11:48;;;;;;;3.77;2.50;;;9.60;1.00;;;;;;5037411;28;20258;-62
2023/04/24 09:14:16;;;;;;;4.77;3.93;;;9.70;1.00;;;;;;5020295;28;20319;-62
2023/04/24 09:16:43;;;;;;;3.10;2.80;;;10.10;1.00;;;;;;5037376;28;20188;-61
2023/04/24 09:19:10;;;;;;;6.87;4.87;;;10.10;1.00;;;;;;5035381;28;20258;-62
2023/04/24 09:21:37;;;;;;;6.07;4.20;;;10.10;1.00;;;;;;5035664;28;20197;-61
2023/04/24 09:24:08;;;;;;;6.23;4.47;;;10.50;1.00;;;;;;5025653;28;20652;-62
2023/04/24 09:26:36;;;;;;;4.93;3.00;;;10.50;1.00;;;;;;5048538;28;20203;-63
2023/04/24 09:29:04;;;;;;;4.73;3.83;;;10.80;1.00;;;;;;5026379;28;20203;-62
2023/04/24 09:31:31;;;;;;;3.73;2.17;;;10.50;1.00;;;;;;5020309;28;20633;-62
2023/04/24 09:34:06;;;;;;;3.87;3.20;;;10.50;1.00;;;;;;5042238;28;20219;-61
2023/04/24 09:36:40;;;;;;;5.53;4.30;;;10.30;1.00;;;;;;5033989;28;20195;-61
2023/04/24 09:39:12;;;;;;;4.10;2.80;;;10.60;1.00;;;;;;5023322;28;20193;-61
2023/04/24 09:41:50;;;;;;;12.40;6.53;;;10.30;1.00;;;;;;5035640;28;20203;-62
2023/04/24 09:44:20;;;;;;;2.13;1.63;;;10.20;1.00;;;;;;5025169;28;20187;-62
2023/04/24 09:46:57;;;;;;;3.73;2.43;;;10.00;1.00;;;;;;5023397;28;20208;-61
2023/04/24 09:49:26;;;;;;;1.80;1.70;;;10.00;1.00;;;;;;5024144;28;20199;-64
2023/04/24 09:52:04;;;;;;;5.67;3.43;;;9.90;1.00;;;;;;5025655;28;20213;-61
2023/04/24 09:54:31;;;;;;;2.43;2.03;;;10.20;1.00;;;;;;5035404;28;20180;-62
2023/04/24 09:57:00;;;;;;;1.77;1.67;;;10.00;1.00;;;;;;5024837;28;20253;-64
2023/04/24 09:59:27;;;;;;;2.83;1.60;;;9.70;1.00;;;;;;5024945;28;20196;-62
2023/04/24 10:01:55;;;;;;;3.53;1.93;;;9.80;1.00;;;;;;5022461;28;21428;-62
2023/04/24 10:04:24;;;;;;;1.50;1.20;;;10.10;1.00;;;;;;5036381;28;20202;-61
2023/04/24 10:06:53;;;;;;;2.27;1.87;;;9.90;1.00;;;;;;5022502;28;20677;-64
2023/04/24 10:09:22;;;;;;;4.33;2.03;;;10.00;1.00;;;;;;5021691;28;20275;-62
2023/04/24 10:11:51;;;;;;;1.50;1.40;;;10.00;1.00;;;;;;5023525;28;20258;-62
2023/04/24 10:14:20;;;;;;;2.07;1.60;;;10.20;1.00;;;;;;5019505;28;20255;-62
2023/04/24 10:16:48;;;;;;;3.50;3.10;;;10.00;1.00;;;;;;5034011;28;20287;-62
2023/04/24 10:19:18;;;;;;;3.53;2.40;;;10.10;1.00;;;;;;5005811;28;20203;-61
2023/04/24 10:21:48;;;;;;;2.40;2.07;;;10.30;1.00;;;;;;5023845;28;20207;-62
2023/04/24 10:24:17;;;;;;;3.17;2.87;;;10.30;1.00;;;;;;5032212;28;20193;-63
2023/04/24 10:26:45;;;;;;;3.77;2.87;;;10.80;1.00;;;;;;5031442;28;20403;-61
2023/04/24 10:29:15;;;;;;;2.63;2.40;;;10.90;1.00;;;;;;5027131;28;20208;-64
2023/04/24 10:31:45;;;;;;;3.43;2.83;;;10.70;1.00;;;;;;5026630;28;20199;-64
2023/04/24 10:34:14;;;;;;;5.40;3.00;;;11.10;1.00;;;;;;5024287;28;20204;-64
2023/04/24 10:36:56;;;;;;;2.73;2.43;;;11.40;1.00;;;;;;5023210;28;20279;-62
2023/04/24 10:39:24;;;;;;;3.23;2.93;;;11.70;1.00;;;;;;5022982;28;20184;-62
2023/04/24 10:41:56;;;;;;;2.40;2.20;;;12.30;1.00;;;;;;5030318;28;20193;-63
2023/04/24 10:44:24;;;;;;;2.40;2.20;;;12.20;1.00;;;;;;5033167;28;20231;-65
2023/04/24 10:46:55;;;;;;;3.87;2.20;;;12.60;1.00;;;;;;5035118;28;20219;-61
2023/04/24 10:49:30;;;;;;;2.93;2.40;;;12.10;1.00;;;;;;5033034;28;20231;-63
2023/04/24 10:52:05;;;;;;;3.53;2.30;;;12.00;1.00;;;;;;5011249;28;20204;-63
2023/04/24 10:54:44;;;;;;;2.30;2.10;;;11.80;1.00;;;;;;5035682;28;20218;-64
2023/04/24 10:57:21;;;;;;;2.97;2.40;;;11.40;1.00;;;;;;5032745;28;20199;-62
2023/04/24 10:59:51;;;;;;;3.80;2.50;;;11.00;1.00;;;;;;5039170;28;20576;-62
2023/04/24 11:02:34;;;;;;;3.87;2.37;;;11.50;1.00;;;;;;5034324;28;20320;-64
2023/04/24 11:05:06;;;;;;;4.80;2.10;;;11.90;1.00;;;;;;5024647;28;20195;-62
2023/04/24 11:08:14;;;;;;;3.30;2.40;;;12.50;1.00;;;;;;5022347;28;20242;-63
2023/04/24 11:10:45;;;;;;;2.03;1.87;;;12.90;1.00;;;;;;5033012;28;20195;-63
2023/04/24 11:13:21;;;;;;;3.10;2.10;;;12.80;1.00;;;;;;5032120;28;20615;-64
2023/04/24 11:16:15;;;;;;;4.77;2.40;;;13.00;1.00;;;;;;5021470;28;20710;-62
2023/04/24 11:18:46;;;;;;;2.50;2.03;;;12.50;1.00;;;;;;5005775;28;20204;-61
2023/04/24 11:21:13;;;;;;;2.50;2.10;;;12.30;1.00;;;;;;5033756;28;20191;-62
2023/04/24 11:23:40;;;;;;;2.57;2.37;;;12.50;1.00;;;;;;5030347;28;20206;-61
2023/04/24 11:26:19;;;;;;;2.77;2.27;;;12.70;1.00;;;;;;5031618;28;20196;-64
2023/04/24 11:28:48;;;;;;;3.23;2.07;;;12.90;1.00;;;;;;5014646;28;20286;-62
2023/04/24 11:31:38;;;;;;;3.23;2.17;;;13.00;1.00;;;;;;5031721;28;20200;-61
2023/04/24 11:34:14;;;;;;;2.93;2.23;;;13.00;1.00;;;;;;5033629;28;20684;-62
2023/04/24 11:36:46;;;;;;;3.70;2.47;;;12.70;1.00;;;;;;5043936;28;20254;-62
2023/04/24 11:39:14;;;;;;;3.13;2.33;;;12.70;1.00;;;;;;5021029;28;20206;-64
2023/04/24 11:41:41;;;;;;;4.13;3.00;;;12.70;1.00;;;;;;5031287;28;20180;-62
2023/04/24 11:44:11;;;;;;;2.90;2.60;;;12.50;1.00;;;;;;5028279;28;20620;-62
2023/04/24 11:46:39;;;;;;;2.87;2.40;;;11.60;1.00;;;;;;5016884;28;20261;-62
2023/04/24 11:49:07;;;;;;;4.10;3.10;;;11.90;1.00;;;;;;5034819;28;20204;-62
2023/04/24 11:51:34;;;;;;;6.00;2.87;;;11.50;1.00;;;;;;5034104;28;20717;-62
2023/04/24 11:54:17;;;;;;;3.03;2.60;;;12.10;1.00;;;;;;5038089;28;20566;-62
2023/04/24 11:56:46;;;;;;;4.60;2.57;;;12.20;1.00;;;;;;5048208;28;20857;-61
2023/04/24 11:59:14;;;;;;;6.60;3.10;;;12.80;1.00;;;;;;5040521;28;20232;-61
2023/04/24 12:01:48;;;;;;;5.80;2.87;;;12.90;1.00;;;;;;5021959;28;20205;-64
2023/04/24 12:04:18;;;;;;;4.60;2.87;;;12.80;1.00;;;;;;5039933;28;21650;-62
2023/04/24 12:07:08;;;;;;;27.23;11.30;;;12.70;1.00;;;;;;5018009;28;20558;-63
2023/04/24 12:09:45;;;;;;;39.00;17.10;;;12.90;1.00;;;;;;5026257;28;20201;-62
2023/04/24 12:12:15;;;;;;;17.30;9.07;;;12.90;1.00;;;;;;5044670;28;20821;-62
2023/04/24 12:14:52;;;;;;;64.37;25.27;;;13.30;1.00;;;;;;5012121;28;20286;-61
2023/04/24 12:17:28;;;;;;;61.87;25.13;;;13.40;1.00;;;;;;5040467;28;20719;-61
2023/04/24 12:20:07;;;;;;;43.40;19.67;;;13.40;1.00;;;;;;5020753;28;20609;-61
2023/04/24 12:22:54;;;;;;;56.10;23.83;;;13.60;1.00;;;;;;5034961;28;20188;-61
2023/04/24 12:25:26;;;;;;;15.23;7.27;;;13.90;1.00;;;;;;5044527;28;20217;-61
2023/04/24 12:28:11;;;;;;;46.63;21.13;;;13.20;1.00;;;;;;5025909;28;20711;-63
2023/04/24 12:30:44;;;;;;;55.70;24.57;;;13.30;1.00;;;;;;5023918;28;20200;-62
2023/04/24 12:33:11;;;;;;;26.23;13.00;;;13.10;1.00;;;;;;5019305;28;20209;-62
2023/04/24 12:35:40;;;;;;;18.17;8.73;;;13.40;1.00;;;;;;5036816;28;20192;-63
2023/04/24 12:38:13;;;;;;;16.67;7.27;;;13.80;1.00;;;;;;5021056;28;20200;-63
2023/04/24 12:40:41;;;;;;;35.13;14.70;;;13.50;1.00;;;;;;5026419;28;20204;-63
2023/04/24 12:43:16;;;;;;;39.47;17.77;;;13.20;1.00;;;;;;5025326;28;20206;-63
2023/04/24 12:45:44;;;;;;;18.93;8.30;;;13.30;1.00;;;;;;5025608;28;20233;-63
2023/04/24 12:48:13;;;;;;;41.93;17.47;;;13.50;1.00;;;;;;5034676;28;20196;-63
2023/04/24 12:50:43;;;;;;;19.30;10.03;;;13.50;1.00;;;;;;5033795;28;20203;-62
2023/04/24 12:53:13;;;;;;;23.90;9.37;;;13.40;1.00;;;;;;5045432;28;20230;-64
2023/04/24 12:55:40;;;;;;;37.97;18.07;;;13.20;1.00;;;;;;5023407;28;20203;-64
2023/04/24 12:58:07;;;;;;;39.27;16.60;;;12.30;1.00;;;;;;5036688;28;20196;-63
2023/04/24 13:00:34;;;;;;;14.63;5.17;;;12.50;1.00;;;;;;5015847;28;20258;-61
2023/04/24 13:03:02;;;;;;;27.27;11.60;;;12.40;1.00;;;;;;5026143;28;20318;-61
2023/04/24 13:05:29;;;;;;;18.07;7.97;;;12.20;1.00;;;;;;5041965;28;20338;-61